Time;durP1;ratioP1;P1;durP2;ratioP2;P2;SDS_P1;SDS_P2;PMS_P1;PMS_P2;Temp;Humidity;BMP_temperature;BMP_pressure;BME280_temperature;BME280_humidity;BME280_pressure;Samples;Min_cycle;Max_cycle;Signal;HPM_P1;HPM_P2
2021/08/31 00:02:22;;;;;;;15.88;11.98;;;14.40;99.90;;;;;;5094344;27;20035;-69
2021/08/31 00:04:48;;;;;;;13.32;10.25;;;14.40;99.90;;;;;;5093676;28;20071;-69
2021/08/31 00:07:14;;;;;;;16.95;10.95;;;14.40;99.90;;;;;;5092194;28;20652;-69
2021/08/31 00:09:39;;;;;;;14.50;11.60;;;14.40;99.90;;;;;;5094145;28;20038;-69
2021/08/31 00:12:06;;;;;;;19.25;10.30;;;14.30;99.90;;;;;;5096378;27;20046;-69
2021/08/31 00:14:34;;;;;;;16.17;10.93;;;14.40;99.90;;;;;;5096170;28;20054;-69
2021/08/31 00:17:00;;;;;;;16.85;10.98;;;14.30;99.90;;;;;;5123918;27;20032;-69
2021/08/31 00:19:25;;;;;;;15.65;11.55;;;14.30;99.90;;;;;;5090266;28;20069;-69
2021/08/31 00:21:51;;;;;;;21.25;11.25;;;14.30;99.90;;;;;;5092334;27;20050;-69
2021/08/31 00:24:17;;;;;;;16.67;11.52;;;14.30;99.90;;;;;;5093126;28;20081;-69
2021/08/31 00:26:42;;;;;;;17.52;10.20;;;14.30;99.90;;;;;;5092625;28;20032;-69
2021/08/31 00:29:08;;;;;;;14.35;11.10;;;14.30;99.90;;;;;;5095599;28;21690;-69
2021/08/31 00:31:33;;;;;;;23.63;13.80;;;14.30;99.90;;;;;;5125083;27;20061;-69
2021/08/31 00:33:59;;;;;;;16.77;12.63;;;14.30;99.90;;;;;;5090852;28;20044;-69
2021/08/31 00:36:25;;;;;;;16.25;12.13;;;14.30;99.90;;;;;;5092634;27;20239;-69
2021/08/31 00:38:50;;;;;;;15.98;11.30;;;14.20;99.90;;;;;;5124837;27;20040;-69
2021/08/31 00:41:16;;;;;;;13.18;11.35;;;14.20;99.90;;;;;;5096433;27;20071;-69
2021/08/31 00:43:46;;;;;;;26.10;11.82;;;14.20;99.90;;;;;;5093981;28;20032;-69
2021/08/31 00:46:13;;;;;;;22.00;13.57;;;14.20;99.90;;;;;;5094487;28;20035;-69
2021/08/31 00:48:40;;;;;;;20.88;13.70;;;14.20;99.90;;;;;;5091711;28;20036;-69
2021/08/31 00:51:07;;;;;;;14.15;11.65;;;14.20;99.90;;;;;;5092196;28;20055;-69
2021/08/31 00:53:34;;;;;;;19.63;12.00;;;14.20;99.90;;;;;;5092739;28;20071;-69
2021/08/31 00:56:01;;;;;;;14.98;11.90;;;14.20;99.90;;;;;;5094874;28;20065;-69
2021/08/31 00:58:26;;;;;;;20.17;12.57;;;14.20;99.90;;;;;;5093718;28;20040;-69
2021/08/31 01:00:53;;;;;;;24.33;13.60;;;14.20;99.90;;;;;;5093388;28;20055;-69
2021/08/31 01:03:18;;;;;;;23.10;13.20;;;14.20;99.90;;;;;;5124674;27;20110;-70
2021/08/31 01:05:44;;;;;;;21.20;13.38;;;14.20;99.90;;;;;;5125433;27;20046;-70
2021/08/31 01:08:10;;;;;;;22.25;12.75;;;14.10;99.90;;;;;;5095767;28;20098;-69
2021/08/31 01:10:35;;;;;;;22.58;13.43;;;14.20;99.90;;;;;;5090755;28;20043;-69
2021/08/31 01:13:01;;;;;;;16.15;11.55;;;14.10;99.90;;;;;;5122008;27;20044;-69
2021/08/31 01:15:28;;;;;;;19.02;12.15;;;14.20;99.90;;;;;;5092978;28;20047;-69
2021/08/31 01:17:54;;;;;;;17.83;11.80;;;14.10;99.90;;;;;;5091093;28;20089;-69
2021/08/31 01:20:21;;;;;;;20.33;12.52;;;14.10;99.90;;;;;;5092481;28;20027;-69
2021/08/31 01:22:47;;;;;;;19.35;10.90;;;14.20;99.90;;;;;;5093988;28;20127;-69
2021/08/31 01:25:13;;;;;;;15.93;11.73;;;14.10;99.90;;;;;;5093896;28;20539;-69
2021/08/31 01:27:39;;;;;;;20.55;12.25;;;14.20;99.90;;;;;;5089458;28;20040;-69
2021/08/31 01:30:05;;;;;;;16.63;11.40;;;14.10;99.90;;;;;;5094009;28;20027;-69
2021/08/31 01:32:31;;;;;;;26.38;12.38;;;14.20;99.90;;;;;;5094005;28;20851;-69
2021/08/31 01:34:56;;;;;;;14.80;11.10;;;14.10;99.90;;;;;;5089094;28;20119;-69
2021/08/31 01:37:23;;;;;;;17.60;10.57;;;14.10;99.90;;;;;;5093383;28;20040;-69
2021/08/31 01:39:49;;;;;;;25.98;11.88;;;14.10;99.90;;;;;;5057615;28;1022406;-69
2021/08/31 01:42:14;;;;;;;16.58;10.77;;;14.10;99.90;;;;;;5089641;28;20134;-69
2021/08/31 01:44:40;;;;;;;17.98;10.50;;;14.10;99.90;;;;;;5094580;28;20042;-69
2021/08/31 01:47:10;;;;;;;18.90;9.85;;;14.10;99.90;;;;;;5092693;28;20032;-69
2021/08/31 01:49:35;;;;;;;16.70;9.93;;;14.10;99.90;;;;;;5124696;27;20040;-69
2021/08/31 01:52:01;;;;;;;16.63;9.45;;;14.10;99.90;;;;;;5094197;28;20091;-70
2021/08/31 01:54:27;;;;;;;16.98;10.07;;;14.10;99.90;;;;;;5094674;28;20131;-69
2021/08/31 01:56:52;;;;;;;23.60;10.23;;;14.10;99.90;;;;;;5125818;27;20071;-69
2021/08/31 01:59:18;;;;;;;13.75;9.65;;;14.10;99.90;;;;;;5098724;28;20156;-69
2021/08/31 02:01:43;;;;;;;17.75;9.68;;;14.10;99.90;;;;;;5125148;27;20079;-69
2021/08/31 02:04:09;;;;;;;18.23;9.80;;;14.10;99.90;;;;;;5092316;28;20062;-70
2021/08/31 02:06:34;;;;;;;16.50;10.38;;;14.10;99.90;;;;;;5091859;28;20031;-70
2021/08/31 02:09:00;;;;;;;21.23;9.52;;;14.10;99.90;;;;;;5096223;28;20039;-69
2021/08/31 02:11:28;;;;;;;21.08;10.25;;;14.10;99.90;;;;;;5092655;28;20028;-69
2021/08/31 02:13:53;;;;;;;19.30;9.13;;;14.10;99.90;;;;;;5094737;28;20496;-69
2021/08/31 02:16:19;;;;;;;16.33;9.55;;;14.10;99.90;;;;;;5124650;27;20072;-70
2021/08/31 02:18:45;;;;;;;18.52;9.32;;;14.10;99.90;;;;;;5094096;28;20043;-69
2021/08/31 02:21:11;;;;;;;15.45;8.55;;;14.10;99.90;;;;;;5093528;28;20031;-69
2021/08/31 02:23:37;;;;;;;16.00;8.57;;;14.10;99.90;;;;;;5095581;28;20031;-69
2021/08/31 02:26:04;;;;;;;17.08;10.02;;;14.10;99.90;;;;;;5092368;28;20039;-69
2021/08/31 02:28:29;;;;;;;17.02;9.27;;;14.10;99.90;;;;;;5098859;28;20063;-70
2021/08/31 02:30:55;;;;;;;21.02;8.40;;;14.10;99.90;;;;;;5100392;28;20128;-69
2021/08/31 02:33:21;;;;;;;19.92;9.68;;;14.10;99.90;;;;;;5100405;28;20081;-70
2021/08/31 02:35:46;;;;;;;20.52;9.48;;;14.10;99.90;;;;;;5097815;28;20193;-69
2021/08/31 02:38:12;;;;;;;16.35;9.25;;;14.10;99.90;;;;;;5101020;28;20031;-70
2021/08/31 02:40:38;;;;;;;17.67;9.15;;;14.20;99.90;;;;;;5103139;27;20040;-70
2021/08/31 02:43:06;;;;;;;14.15;8.43;;;14.20;99.90;;;;;;5103440;27;20043;-70
2021/08/31 02:45:32;;;;;;;23.27;10.50;;;14.20;99.90;;;;;;5103709;28;20039;-70
2021/08/31 02:47:58;;;;;;;21.92;10.35;;;14.30;99.90;;;;;;5102584;27;20046;-70
2021/08/31 02:50:23;;;;;;;21.85;10.20;;;14.20;99.90;;;;;;5100372;27;20028;-70
2021/08/31 02:52:54;;;;;;;21.02;9.60;;;14.30;99.90;;;;;;5103114;28;20063;-70
2021/08/31 02:55:20;;;;;;;20.65;9.38;;;14.30;99.90;;;;;;5104236;27;20117;-70
2021/08/31 02:57:45;;;;;;;18.35;8.15;;;14.40;99.90;;;;;;5106358;27;20078;-70
2021/08/31 03:00:18;;;;;;;29.48;10.20;;;14.40;99.90;;;;;;5100805;27;20047;-70
2021/08/31 03:02:44;;;;;;;18.17;8.15;;;14.40;99.90;;;;;;5104169;28;20046;-70
2021/08/31 03:05:11;;;;;;;22.80;9.07;;;14.50;99.90;;;;;;5108763;27;20032;-70
2021/08/31 03:07:37;;;;;;;18.58;7.45;;;14.50;99.90;;;;;;5104589;28;20047;-70
2021/08/31 03:10:03;;;;;;;20.08;8.48;;;14.50;99.90;;;;;;5099017;27;20420;-70
2021/08/31 03:12:28;;;;;;;24.15;8.35;;;14.50;99.90;;;;;;5100054;28;20032;-70
2021/08/31 03:14:54;;;;;;;32.50;9.75;;;14.50;99.90;;;;;;5103477;27;20427;-70
2021/08/31 03:17:20;;;;;;;20.15;8.85;;;14.50;99.90;;;;;;5103849;27;21279;-70
2021/08/31 03:19:45;;;;;;;16.67;7.90;;;14.50;99.90;;;;;;5104406;28;20028;-70
2021/08/31 03:22:11;;;;;;;20.75;9.48;;;14.50;99.90;;;;;;5103912;27;20088;-70
2021/08/31 03:24:37;;;;;;;20.08;7.35;;;14.40;99.90;;;;;;5099914;27;20049;-70
2021/08/31 03:27:06;;;;;;;18.83;7.82;;;14.40;99.90;;;;;;5104533;27;20047;-70
2021/08/31 03:29:32;;;;;;;20.88;7.47;;;14.40;99.90;;;;;;5105605;27;20027;-70
2021/08/31 03:31:58;;;;;;;15.60;7.95;;;14.30;99.90;;;;;;5106384;27;20039;-70
2021/08/31 03:34:23;;;;;;;16.73;8.68;;;14.30;99.90;;;;;;5104460;28;20720;-70
2021/08/31 03:36:50;;;;;;;17.98;7.70;;;14.30;99.90;;;;;;5103602;28;20473;-70
2021/08/31 03:39:16;;;;;;;18.02;7.53;;;14.30;99.90;;;;;;5101982;28;20200;-70
2021/08/31 03:41:41;;;;;;;16.33;7.32;;;14.30;99.90;;;;;;5104146;27;20097;-70
2021/08/31 03:44:07;;;;;;;16.42;8.23;;;14.30;99.90;;;;;;5099134;27;20051;-70
2021/08/31 03:46:33;;;;;;;25.08;7.95;;;14.30;99.90;;;;;;5099299;28;20119;-70
2021/08/31 03:48:58;;;;;;;15.90;7.78;;;14.30;99.90;;;;;;5102141;27;20047;-70
2021/08/31 03:51:24;;;;;;;20.95;8.55;;;14.30;99.90;;;;;;5101774;28;20043;-70
2021/08/31 03:53:50;;;;;;;14.70;7.75;;;14.30;99.90;;;;;;5101554;27;20019;-70
2021/08/31 03:56:15;;;;;;;20.23;7.35;;;14.30;99.90;;;;;;5103387;27;20427;-70
2021/08/31 03:58:41;;;;;;;16.73;8.50;;;14.30;99.90;;;;;;5100773;27;20047;-70
2021/08/31 04:01:07;;;;;;;20.60;7.78;;;14.30;99.90;;;;;;5130581;27;20086;-70
2021/08/31 04:03:32;;;;;;;22.40;8.88;;;14.40;99.90;;;;;;5103200;27;20047;-70
2021/08/31 04:05:58;;;;;;;21.58;8.98;;;14.40;99.90;;;;;;5101937;28;20044;-70
2021/08/31 04:08:24;;;;;;;18.77;8.95;;;14.40;99.90;;;;;;5103271;27;20066;-70
2021/08/31 04:10:49;;;;;;;19.92;8.57;;;14.40;99.90;;;;;;5097832;28;20052;-70
2021/08/31 04:13:18;;;;;;;18.10;9.13;;;14.40;99.90;;;;;;5103250;27;20402;-70
2021/08/31 04:15:47;;;;;;;18.27;9.18;;;14.40;99.90;;;;;;5104692;28;20459;-70
2021/08/31 04:18:13;;;;;;;21.60;9.48;;;14.40;99.90;;;;;;5097853;27;20564;-70
2021/08/31 04:20:39;;;;;;;16.90;8.75;;;14.40;99.90;;;;;;5097082;27;20104;-70
2021/08/31 04:23:05;;;;;;;17.60;8.45;;;14.40;99.90;;;;;;5099113;27;20078;-70
2021/08/31 04:25:30;;;;;;;19.38;9.30;;;14.40;99.90;;;;;;5129203;27;20125;-70
2021/08/31 04:27:56;;;;;;;20.73;9.40;;;14.50;99.90;;;;;;5107092;28;20031;-71
2021/08/31 04:30:22;;;;;;;23.58;10.65;;;14.50;99.90;;;;;;5094899;27;20036;-70
2021/08/31 04:32:47;;;;;;;21.75;9.82;;;14.50;99.90;;;;;;5097065;28;20046;-70
2021/08/31 04:35:13;;;;;;;20.60;8.82;;;14.50;99.90;;;;;;5132417;27;20092;-70
2021/08/31 04:37:38;;;;;;;22.77;8.32;;;14.50;99.90;;;;;;5101357;28;20043;-70
2021/08/31 04:40:05;;;;;;;18.35;9.13;;;14.50;99.90;;;;;;5097729;28;20093;-70
2021/08/31 04:42:30;;;;;;;21.50;9.60;;;14.50;99.90;;;;;;5131139;27;20495;-70
2021/08/31 04:44:56;;;;;;;18.58;9.60;;;14.60;99.90;;;;;;5104697;28;20047;-70
2021/08/31 04:47:21;;;;;;;22.83;10.40;;;14.50;99.90;;;;;;5101656;28;20048;-70
2021/08/31 04:49:47;;;;;;;21.23;10.43;;;14.60;99.90;;;;;;5131797;27;20039;-70
2021/08/31 04:52:13;;;;;;;18.98;9.30;;;14.60;99.90;;;;;;5103387;28;20036;-70
2021/08/31 04:54:39;;;;;;;19.88;10.40;;;14.60;99.90;;;;;;5101942;28;20038;-70
2021/08/31 04:57:04;;;;;;;18.80;9.57;;;14.60;99.90;;;;;;5134648;27;20066;-70
2021/08/31 04:59:30;;;;;;;20.02;9.60;;;14.70;99.90;;;;;;5104453;27;20389;-70
2021/08/31 05:01:56;;;;;;;22.48;10.60;;;14.70;99.90;;;;;;5100841;28;20036;-70
2021/08/31 05:04:27;;;;;;;21.83;10.18;;;14.70;99.90;;;;;;5095764;28;20150;-70
2021/08/31 05:06:53;;;;;;;23.08;12.30;;;14.80;99.90;;;;;;5097701;28;20118;-70
2021/08/31 05:09:18;;;;;;;25.27;11.93;;;14.80;99.90;;;;;;5101898;28;20627;-70
2021/08/31 05:11:44;;;;;;;27.30;12.50;;;14.90;99.90;;;;;;5099189;28;20114;-70
2021/08/31 05:14:10;;;;;;;24.77;11.07;;;14.90;99.90;;;;;;5099499;28;20067;-70
2021/08/31 05:16:35;;;;;;;24.00;11.43;;;14.90;99.90;;;;;;5098994;28;20802;-70
2021/08/31 05:19:01;;;;;;;25.98;11.65;;;15.00;99.90;;;;;;5099388;28;20024;-70
2021/08/31 05:21:28;;;;;;;28.65;13.10;;;15.10;99.90;;;;;;5098624;28;20089;-70
2021/08/31 05:23:53;;;;;;;21.55;9.70;;;15.10;99.90;;;;;;5128225;27;20036;-70
2021/08/31 05:26:19;;;;;;;19.73;10.15;;;15.10;99.90;;;;;;5096660;28;20120;-70
2021/08/31 05:28:44;;;;;;;22.52;9.88;;;15.20;99.90;;;;;;5102265;28;20051;-70
2021/08/31 05:31:11;;;;;;;20.38;9.85;;;15.20;99.90;;;;;;5099244;28;20035;-70
2021/08/31 05:33:36;;;;;;;20.70;10.55;;;15.30;99.90;;;;;;5098324;28;20043;-70
2021/08/31 05:36:02;;;;;;;25.42;11.43;;;15.30;99.90;;;;;;5127413;27;20055;-71
2021/08/31 05:38:28;;;;;;;24.55;11.38;;;15.30;99.90;;;;;;5100895;28;20417;-70
2021/08/31 05:40:53;;;;;;;21.30;11.80;;;15.30;99.90;;;;;;5098535;28;20040;-71
2021/08/31 05:43:19;;;;;;;19.33;11.00;;;15.40;99.90;;;;;;5096576;28;20478;-70
2021/08/31 05:45:45;;;;;;;22.65;11.45;;;15.40;99.90;;;;;;5128025;27;20043;-70
2021/08/31 05:48:10;;;;;;;19.95;10.70;;;15.60;99.90;;;;;;5127477;27;20495;-70
2021/08/31 05:50:36;;;;;;;25.38;11.57;;;15.60;99.90;;;;;;5097590;28;20032;-70
2021/08/31 05:53:04;;;;;;;21.60;9.27;;;15.70;99.90;;;;;;5099161;28;20083;-70
2021/08/31 05:55:30;;;;;;;20.65;10.05;;;15.80;99.90;;;;;;5102416;28;20124;-70
2021/08/31 05:57:56;;;;;;;17.23;10.25;;;15.80;99.90;;;;;;5101863;28;20177;-71
2021/08/31 06:00:21;;;;;;;16.67;9.48;;;15.90;99.90;;;;;;5127953;27;20054;-71
2021/08/31 06:02:47;;;;;;;18.08;8.63;;;16.30;99.90;;;;;;5101225;28;20055;-71
2021/08/31 06:05:13;;;;;;;14.38;7.32;;;17.00;99.90;;;;;;5099897;28;20031;-71
2021/08/31 06:07:39;;;;;;;15.15;6.30;;;18.20;99.90;;;;;;5097916;28;20039;-71
2021/08/31 06:10:06;;;;;;;12.20;6.18;;;19.50;99.90;;;;;;5093736;28;20489;-71
2021/08/31 06:12:31;;;;;;;9.55;6.20;;;20.70;99.90;;;;;;5097208;28;20047;-71
2021/08/31 06:14:57;;;;;;;13.20;6.20;;;21.60;99.90;;;;;;5135895;27;20048;-71
2021/08/31 06:17:25;;;;;;;12.07;5.45;;;22.40;99.90;;;;;;5101983;28;20405;-71
2021/08/31 06:19:50;;;;;;;12.85;5.10;;;23.40;99.90;;;;;;5102251;28;20044;-71
2021/08/31 06:22:16;;;;;;;11.82;5.70;;;24.00;99.90;;;;;;5102059;27;20393;-71
2021/08/31 06:24:42;;;;;;;10.25;5.35;;;23.70;99.90;;;;;;5105937;28;20453;-71
2021/08/31 06:27:08;;;;;;;14.27;6.15;;;22.90;99.90;;;;;;5100069;27;20040;-71
2021/08/31 06:29:34;;;;;;;15.23;6.15;;;22.20;99.90;;;;;;5104920;28;20039;-71
2021/08/31 06:31:59;;;;;;;8.82;5.22;;;21.70;99.90;;;;;;5102953;28;20127;-71
2021/08/31 06:34:25;;;;;;;9.93;5.30;;;22.00;99.90;;;;;;5129258;27;20044;-71
2021/08/31 06:36:51;;;;;;;11.30;5.15;;;23.10;99.90;;;;;;5099238;28;20039;-71
2021/08/31 06:39:17;;;;;;;9.73;4.90;;;24.40;99.90;;;;;;5097182;28;20136;-72
2021/08/31 06:41:43;;;;;;;12.63;5.03;;;25.40;99.90;;;;;;5100409;28;20040;-71
2021/08/31 06:44:09;;;;;;;8.50;5.22;;;26.40;99.90;;;;;;5103515;28;20405;-72
2021/08/31 06:46:35;;;;;;;7.45;4.25;;;27.30;99.90;;;;;;5102892;28;20393;-71
2021/08/31 06:49:01;;;;;;;8.43;4.70;;;28.10;99.90;;;;;;5100823;28;20131;-71
2021/08/31 06:51:27;;;;;;;10.02;5.10;;;28.70;99.40;;;;;;5100604;27;20035;-71
2021/08/31 06:53:53;;;;;;;10.40;5.38;;;29.20;95.00;;;;;;5102127;28;20054;-72
2021/08/31 06:56:20;;;;;;;12.80;4.90;;;29.80;93.20;;;;;;5101510;28;20148;-71
2021/08/31 06:58:47;;;;;;;10.65;4.80;;;30.20;89.80;;;;;;5102461;28;20039;-72
2021/08/31 07:01:13;;;;;;;11.93;5.28;;;29.90;83.20;;;;;;5097820;28;20047;-71
2021/08/31 07:03:38;;;;;;;10.90;4.93;;;29.30;84.90;;;;;;5098605;28;20063;-71
2021/08/31 07:06:04;;;;;;;12.75;4.65;;;28.20;90.50;;;;;;5099197;28;20040;-71
2021/08/31 07:08:29;;;;;;;12.75;4.95;;;27.10;94.50;;;;;;5102610;28;20089;-71
2021/08/31 07:10:56;;;;;;;11.82;5.25;;;26.00;99.00;;;;;;5099810;28;20111;-71
2021/08/31 07:13:22;;;;;;;11.57;4.88;;;25.10;99.90;;;;;;5100916;27;20055;-71
2021/08/31 07:15:48;;;;;;;11.80;5.10;;;24.50;99.90;;;;;;5131395;27;20575;-71
2021/08/31 07:18:13;;;;;;;10.38;4.60;;;24.00;99.90;;;;;;5099003;28;20126;-71
2021/08/31 07:20:39;;;;;;;15.45;5.38;;;23.40;99.90;;;;;;5100901;28;20126;-71
2021/08/31 07:23:06;;;;;;;9.68;5.45;;;23.00;99.90;;;;;;5101176;28;20047;-71
2021/08/31 07:25:32;;;;;;;13.13;5.10;;;22.70;99.90;;;;;;5128942;27;20043;-71
2021/08/31 07:27:58;;;;;;;12.00;5.57;;;22.40;99.90;;;;;;5103974;28;20043;-71
2021/08/31 07:30:23;;;;;;;11.20;5.40;;;22.10;99.90;;;;;;5099329;27;20035;-71
2021/08/31 07:32:49;;;;;;;12.52;4.93;;;22.00;99.90;;;;;;5100073;28;20071;-71
2021/08/31 07:35:15;;;;;;;12.50;5.03;;;21.90;99.90;;;;;;5099704;28;20043;-71
2021/08/31 07:37:42;;;;;;;13.63;5.07;;;21.80;99.90;;;;;;5099456;28;20042;-71
2021/08/31 07:40:08;;;;;;;13.40;4.85;;;21.60;99.90;;;;;;5099261;28;20080;-71
2021/08/31 07:42:34;;;;;;;10.70;5.03;;;21.30;99.90;;;;;;5103969;28;20043;-71
2021/08/31 07:45:04;;;;;;;11.18;4.95;;;21.20;99.90;;;;;;5103745;28;20069;-70
2021/08/31 07:47:31;;;;;;;9.35;4.85;;;21.00;99.90;;;;;;5098351;28;20754;-70
2021/08/31 07:49:57;;;;;;;13.35;5.95;;;20.80;99.90;;;;;;5100666;28;20050;-70
2021/08/31 07:52:23;;;;;;;15.60;5.63;;;20.60;99.90;;;;;;5097542;28;20036;-69
2021/08/31 07:54:48;;;;;;;13.52;4.97;;;20.50;99.90;;;;;;5099542;28;20040;-70
2021/08/31 07:57:14;;;;;;;10.90;5.03;;;20.40;99.90;;;;;;5102037;28;20047;-70
2021/08/31 07:59:40;;;;;;;13.43;5.00;;;20.40;99.90;;;;;;5123931;27;20047;-70
2021/08/31 08:02:06;;;;;;;9.70;4.78;;;20.50;99.90;;;;;;5093202;28;20040;-70
2021/08/31 08:04:32;;;;;;;10.68;4.82;;;20.50;99.90;;;;;;5095441;28;20044;-70
2021/08/31 08:06:58;;;;;;;12.18;5.28;;;20.50;99.90;;;;;;5095024;28;20093;-70
2021/08/31 08:09:24;;;;;;;9.55;4.47;;;20.30;99.90;;;;;;5095119;28;20108;-70
2021/08/31 08:11:50;;;;;;;13.07;5.40;;;20.20;99.90;;;;;;5094758;28;20489;-70
2021/08/31 08:14:15;;;;;;;9.65;4.75;;;20.10;99.90;;;;;;5093543;28;20031;-70
2021/08/31 08:16:41;;;;;;;12.07;5.05;;;20.10;99.90;;;;;;5124423;27;20482;-70
2021/08/31 08:19:07;;;;;;;10.68;4.95;;;20.30;99.90;;;;;;5092099;28;20043;-70
2021/08/31 08:21:33;;;;;;;9.77;4.88;;;20.50;99.90;;;;;;5092909;28;20108;-70
2021/08/31 08:23:59;;;;;;;11.95;4.82;;;20.80;99.90;;;;;;5093854;28;20870;-70
2021/08/31 08:26:25;;;;;;;12.05;5.65;;;21.00;99.90;;;;;;5093658;28;20044;-70
2021/08/31 08:28:50;;;;;;;11.63;4.90;;;21.30;99.90;;;;;;5094565;27;20040;-70
2021/08/31 08:31:16;;;;;;;11.63;4.43;;;21.40;99.90;;;;;;5096118;28;20036;-70
2021/08/31 08:33:42;;;;;;;8.65;4.30;;;21.70;99.90;;;;;;5092795;28;20043;-70
2021/08/31 08:36:08;;;;;;;11.95;4.60;;;22.00;99.90;;;;;;5093500;28;20694;-70
2021/08/31 08:38:34;;;;;;;15.15;4.82;;;22.30;99.90;;;;;;5094217;28;20028;-70
2021/08/31 08:41:05;;;;;;;10.07;4.53;;;22.60;99.90;;;;;;5126057;27;20046;-70
2021/08/31 08:43:32;;;;;;;12.98;4.50;;;22.80;99.90;;;;;;5094054;28;20445;-70
2021/08/31 08:46:02;;;;;;;10.45;4.32;;;23.00;99.90;;;;;;5095483;28;20504;-70
2021/08/31 08:48:28;;;;;;;10.73;4.55;;;23.20;99.90;;;;;;5094168;28;20052;-70
2021/08/31 08:50:57;;;;;;;12.52;4.18;;;23.20;99.90;;;;;;5095282;28;20039;-70
2021/08/31 08:53:25;;;;;;;9.02;3.85;;;23.40;99.90;;;;;;5091971;28;20046;-70
2021/08/31 08:55:52;;;;;;;11.10;4.63;;;23.60;99.90;;;;;;5093516;28;20046;-70
2021/08/31 08:58:19;;;;;;;8.75;3.20;;;23.60;99.90;;;;;;5095516;28;20047;-69
2021/08/31 09:01:07;;;;;;;12.40;3.80;;;23.70;99.90;;;;;;5097030;28;20123;-69
2021/08/31 09:03:35;;;;;;;5.70;3.65;;;23.70;99.90;;;;;;5094109;28;20039;-70
2021/08/31 09:06:11;;;;;;;9.35;3.85;;;23.60;99.90;;;;;;5073838;28;20136;-70
2021/08/31 09:08:43;;;;;;;14.18;3.63;;;23.60;99.90;;;;;;5091187;28;20580;-69
2021/08/31 09:11:38;;;;;;;14.90;5.80;;;23.60;99.90;;;;;;5090758;28;20039;-69
2021/08/31 09:14:32;;;;;;;10.98;3.92;;;23.40;99.90;;;;;;5093747;27;20086;-70
2021/08/31 09:17:01;;;;;;;13.00;3.60;;;23.30;99.90;;;;;;5093857;28;20097;-70
2021/08/31 09:19:32;;;;;;;10.98;4.40;;;23.00;99.90;;;;;;5091552;28;20378;-69
2021/08/31 09:22:21;;;;;;;12.98;4.25;;;22.80;99.90;;;;;;5092028;28;20043;-69
2021/08/31 09:25:02;;;;;;;11.63;3.90;;;22.70;99.90;;;;;;5092766;28;20046;-69
2021/08/31 09:27:39;;;;;;;12.85;4.13;;;22.40;99.90;;;;;;5091149;28;20046;-69
2021/08/31 09:30:20;;;;;;;12.32;3.30;;;22.30;99.90;;;;;;5094260;28;20044;-69
2021/08/31 09:33:09;;;;;;;11.80;3.47;;;22.20;99.90;;;;;;5097679;28;23503;-69
2021/08/31 09:35:42;;;;;;;8.05;3.33;;;22.30;99.90;;;;;;5094784;28;20526;-69
2021/08/31 09:38:16;;;;;;;15.65;3.55;;;22.30;99.90;;;;;;5099230;28;20047;-69
2021/08/31 09:40:45;;;;;;;13.25;3.90;;;22.10;99.90;;;;;;5097033;28;20044;-69
2021/08/31 09:43:17;;;;;;;9.38;3.20;;;22.00;99.90;;;;;;5094087;28;20046;-69
2021/08/31 09:45:46;;;;;;;7.45;3.60;;;22.10;99.90;;;;;;5092932;28;20039;-69
2021/08/31 09:48:15;;;;;;;12.55;4.13;;;22.40;99.90;;;;;;5098908;28;20043;-69
2021/08/31 09:50:46;;;;;;;8.57;4.28;;;22.60;99.90;;;;;;5093882;28;20039;-69
2021/08/31 09:53:13;;;;;;;13.10;4.22;;;22.80;99.90;;;;;;5096315;28;20058;-69
2021/08/31 09:55:41;;;;;;;12.23;4.32;;;23.20;99.90;;;;;;5096337;28;20120;-69
2021/08/31 09:58:10;;;;;;;10.55;3.90;;;23.10;99.90;;;;;;5096156;28;20130;-69
2021/08/31 10:00:38;;;;;;;12.18;5.20;;;23.00;99.90;;;;;;5093414;28;20127;-69
2021/08/31 10:03:04;;;;;;;12.85;4.22;;;22.80;99.90;;;;;;5097567;28;20039;-69
2021/08/31 10:05:33;;;;;;;12.13;4.20;;;22.90;99.90;;;;;;5093350;28;20035;-69
2021/08/31 10:08:00;;;;;;;13.30;3.85;;;23.10;99.90;;;;;;5096443;28;20039;-69
2021/08/31 10:10:27;;;;;;;14.00;4.13;;;23.00;99.90;;;;;;5094480;27;20050;-69
2021/08/31 10:12:55;;;;;;;11.00;4.30;;;23.00;99.90;;;;;;5096070;28;20047;-69
2021/08/31 10:15:22;;;;;;;15.73;4.50;;;22.90;99.90;;;;;;5092765;27;20087;-69
2021/08/31 10:17:50;;;;;;;12.85;4.03;;;22.70;99.90;;;;;;5093756;28;20039;-69
2021/08/31 10:20:24;;;;;;;10.35;3.72;;;22.60;99.90;;;;;;5094490;28;20040;-69
2021/08/31 10:22:50;;;;;;;10.32;4.45;;;22.70;99.90;;;;;;5095577;28;20047;-69
2021/08/31 10:25:21;;;;;;;9.95;4.07;;;22.80;99.90;;;;;;5092725;28;20036;-69
2021/08/31 10:27:47;;;;;;;9.82;3.65;;;23.00;99.90;;;;;;5094046;28;20040;-69
2021/08/31 10:30:19;;;;;;;6.93;3.22;;;23.00;99.90;;;;;;5078254;28;20039;-69
2021/08/31 10:32:59;;;;;;;10.63;4.00;;;22.70;99.90;;;;;;5096709;27;20460;-69
2021/08/31 10:35:31;;;;;;;13.43;3.75;;;22.70;99.90;;;;;;5098901;28;20367;-69
2021/08/31 10:37:59;;;;;;;16.25;4.18;;;22.60;99.90;;;;;;5099823;28;20052;-69
2021/08/31 10:40:33;;;;;;;9.57;3.30;;;22.80;99.90;;;;;;5130297;27;20047;-69
2021/08/31 10:43:07;;;;;;;10.57;3.20;;;22.90;99.90;;;;;;5098750;28;20130;-69
2021/08/31 10:45:35;;;;;;;8.82;3.53;;;22.90;99.90;;;;;;5129393;27;20036;-69
2021/08/31 10:48:21;;;;;;;11.77;4.70;;;22.70;99.90;;;;;;5098765;27;20052;-69
2021/08/31 10:50:51;;;;;;;10.38;2.97;;;22.50;99.90;;;;;;5129407;27;20131;-69
2021/08/31 10:53:42;;;;;;;11.40;3.40;;;22.70;99.90;;;;;;5095344;28;20051;-69
2021/08/31 10:56:23;;;;;;;8.63;3.47;;;23.00;99.90;;;;;;5098184;27;20519;-69
2021/08/31 10:58:54;;;;;;;11.05;3.17;;;23.20;99.90;;;;;;5128404;27;20043;-69
2021/08/31 11:01:25;;;;;;;12.73;3.30;;;23.30;99.90;;;;;;5088252;28;20051;-69
2021/08/31 11:03:53;;;;;;;12.93;4.13;;;23.20;99.90;;;;;;5093494;28;20055;-69
2021/08/31 11:06:33;;;;;;;11.55;3.65;;;23.00;99.90;;;;;;5124334;27;20201;-69
2021/08/31 11:09:11;;;;;;;14.73;4.18;;;22.90;99.90;;;;;;5096116;27;21814;-69
2021/08/31 11:11:45;;;;;;;10.55;3.67;;;22.90;99.90;;;;;;5094841;28;20082;-69
2021/08/31 11:14:10;;;;;;;12.95;4.32;;;22.90;99.90;;;;;;5127415;27;20043;-69
2021/08/31 11:16:37;;;;;;;8.80;3.38;;;22.90;99.90;;;;;;5094782;28;20028;-69
2021/08/31 11:19:25;;;;;;;10.02;3.67;;;23.00;99.90;;;;;;5092229;28;20054;-69
2021/08/31 11:21:52;;;;;;;12.98;3.70;;;23.00;99.90;;;;;;5091894;28;20036;-69
2021/08/31 11:24:18;;;;;;;12.27;4.47;;;23.00;99.90;;;;;;5094305;28;20042;-69
2021/08/31 11:26:44;;;;;;;12.40;4.07;;;22.90;99.90;;;;;;5095076;28;20031;-69
2021/08/31 11:29:11;;;;;;;11.95;3.75;;;23.00;99.90;;;;;;5092693;28;20043;-69
2021/08/31 11:31:38;;;;;;;12.07;4.22;;;23.00;99.90;;;;;;5074888;28;20096;-69
2021/08/31 11:34:10;;;;;;;11.55;4.03;;;23.00;99.90;;;;;;5095778;28;20478;-69
2021/08/31 11:36:38;;;;;;;15.00;4.82;;;22.80;99.90;;;;;;5093357;28;20075;-69
2021/08/31 11:39:06;;;;;;;15.13;4.47;;;22.70;99.90;;;;;;5094940;28;20050;-69
2021/08/31 11:41:36;;;;;;;13.75;4.00;;;22.60;99.90;;;;;;5095844;28;20039;-69
2021/08/31 11:44:10;;;;;;;14.63;4.20;;;22.70;99.90;;;;;;5093791;28;20168;-69
2021/08/31 11:46:39;;;;;;;12.15;3.38;;;22.80;99.90;;;;;;5094639;28;21583;-69
2021/08/31 11:49:14;;;;;;;11.68;4.25;;;22.80;99.90;;;;;;5095619;28;20074;-69
2021/08/31 11:51:43;;;;;;;11.60;3.63;;;22.80;99.90;;;;;;5094049;28;20038;-69
2021/08/31 11:54:12;;;;;;;13.38;3.75;;;22.60;99.90;;;;;;5094945;28;20065;-69
2021/08/31 11:56:39;;;;;;;11.35;4.28;;;22.50;99.90;;;;;;5096092;28;20035;-69
2021/08/31 11:59:05;;;;;;;17.25;4.40;;;22.50;99.90;;;;;;5093861;28;20130;-69
2021/08/31 12:01:33;;;;;;;24.38;5.88;;;22.70;99.90;;;;;;5094937;28;20035;-69
2021/08/31 12:04:20;;;;;;;8.68;3.63;;;22.90;99.90;;;;;;5090912;28;20068;-69
2021/08/31 12:06:49;;;;;;;14.43;4.10;;;23.00;99.90;;;;;;5093126;28;20036;-69
2021/08/31 12:09:20;;;;;;;16.02;4.03;;;23.10;99.90;;;;;;5091856;28;20036;-69
2021/08/31 12:11:48;;;;;;;16.75;3.63;;;23.20;99.90;;;;;;5089821;28;20126;-68
2021/08/31 12:14:18;;;;;;;17.50;4.45;;;23.40;99.90;;;;;;5089938;28;20035;-69
2021/08/31 12:16:45;;;;;;;10.63;3.05;;;23.50;99.90;;;;;;5096208;28;20067;-68
2021/08/31 12:19:20;;;;;;;16.17;3.88;;;23.60;99.90;;;;;;5097949;27;20520;-68
2021/08/31 12:22:15;;;;;;;12.02;3.90;;;23.40;99.90;;;;;;5094548;28;20350;-68
2021/08/31 12:24:43;;;;;;;10.35;3.47;;;23.30;99.90;;;;;;5094855;28;20051;-68
2021/08/31 12:27:16;;;;;;;12.45;3.20;;;23.20;99.90;;;;;;5097128;28;20089;-68
2021/08/31 12:29:45;;;;;;;13.00;3.53;;;23.20;99.90;;;;;;5091584;28;20689;-67
2021/08/31 12:32:10;;;;;;;15.63;4.10;;;23.10;99.90;;;;;;5093532;28;20185;-67
2021/08/31 12:34:36;;;;;;;10.07;3.25;;;23.10;99.90;;;;;;5093652;28;20138;-68
2021/08/31 12:37:02;;;;;;;9.88;2.33;;;23.00;99.90;;;;;;5094212;28;20397;-68
2021/08/31 12:39:29;;;;;;;15.50;3.65;;;22.90;99.90;;;;;;5091947;28;20409;-68